Time;durP1;ratioP1;P1;durP2;ratioP2;P2;SDS_P1;SDS_P2;PMS_P1;PMS_P2;Temp;Humidity;BMP_temperature;BMP_pressure;BME280_temperature;BME280_humidity;BME280_pressure;Samples;Min_cycle;Max_cycle;Signal;HPM_P1;HPM_P2
2023/09/27 00:01:21;;;;;;;1999.90;999.90;;;;;;;;;;4977076;28;20240;-68
2023/09/27 00:03:49;;;;;;;1999.90;999.90;;;;;;;;;;4975667;28;20188;-63
2023/09/27 00:06:16;;;;;;;1999.90;999.90;;;;;;;;;;4974526;28;20198;-65
2023/09/27 00:08:44;;;;;;;1999.90;999.90;;;;;;;;;;4975937;28;20248;-63
2023/09/27 00:11:12;;;;;;;1999.90;999.90;;;;;;;;;;4971883;28;20195;-65
2023/09/27 00:13:39;;;;;;;1999.90;999.90;;;;;;;;;;4967019;28;20609;-61
2023/09/27 00:16:06;;;;;;;1999.90;999.90;;;;;;;;;;4967700;28;20526;-66
2023/09/27 00:18:35;;;;;;;1999.90;999.90;;;;;;;;;;4967006;28;20201;-61
2023/09/27 00:21:03;;;;;;;1999.90;999.90;;;;;;;;;;4951591;28;20551;-62
2023/09/27 00:23:30;;;;;;;1999.90;999.90;;;;;;;;;;4958142;28;20221;-62
2023/09/27 00:25:57;;;;;;;1999.90;999.90;;;;;;;;;;4982813;28;20202;-61
2023/09/27 00:28:25;;;;;;;1999.90;999.90;;;;;;;;;;4985933;28;20204;-63
2023/09/27 00:30:52;;;;;;;1999.90;999.90;;;;;;;;;;4983489;28;20193;-64
2023/09/27 00:33:19;;;;;;;1999.90;999.90;;;;;;;;;;4985589;28;20760;-63
2023/09/27 00:35:50;;;;;;;1999.90;999.90;;;;;;;;;;4986142;28;20588;-63
2023/09/27 00:38:18;;;;;;;1999.90;999.90;;;;;;;;;;4986468;28;20190;-62
2023/09/27 00:40:46;;;;;;;1999.90;999.90;;;;;;;;;;4986258;28;20198;-64
2023/09/27 00:43:25;;;;;;;1999.90;999.90;;;;;;;;;;4985750;28;20191;-64
2023/09/27 00:45:53;;;;;;;1999.90;999.90;;;;;;;;;;4985693;28;20222;-64
2023/09/27 00:48:21;;;;;;;1999.90;999.90;;;;;;;;;;4986056;28;20208;-62
2023/09/27 00:50:48;;;;;;;1999.90;999.90;;;;;;;;;;4985338;28;20197;-61
2023/09/27 00:53:17;;;;;;;1999.90;999.90;;;;;;;;;;4985571;28;20201;-61
2023/09/27 00:55:44;;;;;;;1999.90;999.90;;;;;;;;;;4985763;28;20508;-62
2023/09/27 00:58:11;;;;;;;1999.90;999.90;;;;;;;;;;4986182;28;20198;-61
2023/09/27 01:00:39;;;;;;;1999.90;999.90;;;;;;;;;;4985617;28;20575;-61
2023/09/27 01:03:06;;;;;;;1999.90;999.90;;;;;;;;;;4985819;28;20190;-61
2023/09/27 01:05:33;;;;;;;1999.90;999.90;;;;;;;;;;4985500;28;20316;-61
2023/09/27 01:08:01;;;;;;;1999.90;999.90;;;;;;;;;;4984790;28;20229;-64
2023/09/27 01:10:30;;;;;;;1999.90;999.90;;;;;;;;;;4986694;28;20205;-64
2023/09/27 01:12:57;;;;;;;1999.90;999.90;;;;;;;;;;4989927;28;20194;-63
2023/09/27 01:15:25;;;;;;;1999.90;999.90;;;;;;;;;;4988857;28;20229;-61
2023/09/27 01:17:55;;;;;;;1999.90;999.90;;;;;;;;;;4990290;28;20190;-62
2023/09/27 01:20:23;;;;;;;1999.90;999.90;;;;;;;;;;4989900;28;20190;-64
2023/09/27 01:22:58;;;;;;;1999.90;999.90;;;;;;;;;;4988203;28;20201;-63
2023/09/27 01:25:29;;;;;;;1999.90;999.90;;;;;;;;;;4989504;28;20209;-62
2023/09/27 01:27:56;;;;;;;1999.90;999.90;;;;;;;;;;4989651;28;20190;-61
2023/09/27 01:30:31;;;;;;;1999.90;999.90;;;;;;;;;;4986220;28;20200;-63
2023/09/27 01:32:59;;;;;;;1999.90;999.90;;;;;;;;;;4986535;28;20276;-62
2023/09/27 01:35:27;;;;;;;1999.90;999.90;;;;;;;;;;4989049;28;20209;-62
2023/09/27 01:37:54;;;;;;;1999.90;999.90;;;;;;;;;;4989389;28;20198;-62
2023/09/27 01:40:26;;;;;;;1999.90;999.90;;;;;;;;;;4989464;28;20664;-63
2023/09/27 01:42:54;;;;;;;1999.90;999.90;;;;;;;;;;4989070;28;20221;-64
2023/09/27 01:45:21;;;;;;;1999.90;999.90;;;;;;;;;;4988761;28;20230;-61
2023/09/27 01:47:48;;;;;;;1999.90;999.90;;;;;;;;;;4989117;28;20505;-62
2023/09/27 01:50:18;;;;;;;1999.90;999.90;;;;;;;;;;4989033;28;20189;-65
2023/09/27 01:52:45;;;;;;;1999.90;999.90;;;;;;;;;;4987961;28;20233;-64
2023/09/27 01:55:13;;;;;;;1999.90;999.90;;;;;;;;;;4988809;28;20209;-63
2023/09/27 01:57:41;;;;;;;1999.90;999.90;;;;;;;;;;4988349;28;20240;-62
2023/09/27 02:00:11;;;;;;;1999.90;999.90;;;;;;;;;;4988962;28;20186;-64
2023/09/27 02:02:38;;;;;;;1999.90;999.90;;;;;;;;;;4987945;28;20201;-62
2023/09/27 02:05:06;;;;;;;1999.90;999.90;;;;;;;;;;4988880;28;20260;-66
2023/09/27 02:07:33;;;;;;;1999.90;999.90;;;;;;;;;;4988075;28;20232;-66
2023/09/27 02:10:00;;;;;;;1999.90;999.90;;;;;;;;;;4988798;28;20208;-62
2023/09/27 02:12:28;;;;;;;1999.90;999.90;;;;;;;;;;4986515;28;20309;-66
2023/09/27 02:14:56;;;;;;;1999.90;999.90;;;;;;;;;;4988763;28;20209;-67
2023/09/27 02:17:24;;;;;;;1999.90;999.90;;;;;;;;;;4988532;28;20233;-63
2023/09/27 02:19:51;;;;;;;1999.90;999.90;;;;;;;;;;4988563;28;21083;-68
2023/09/27 02:22:19;;;;;;;1999.90;999.90;;;;;;;;;;4988377;28;20201;-66
2023/09/27 02:24:47;;;;;;;1999.90;999.90;;;;;;;;;;4988226;28;20194;-68
2023/09/27 02:27:14;;;;;;;1999.90;999.90;;;;;;;;;;4987695;28;20268;-64
2023/09/27 02:29:42;;;;;;;1999.90;999.90;;;;;;;;;;4988143;28;20205;-62
2023/09/27 02:32:10;;;;;;;1999.90;999.90;;;;;;;;;;4987935;28;20473;-67
2023/09/27 02:34:38;;;;;;;1999.90;999.90;;;;;;;;;;4970432;28;20228;-64
2023/09/27 02:37:05;;;;;;;1999.90;999.90;;;;;;;;;;4988290;28;20229;-65
2023/09/27 02:39:33;;;;;;;1999.90;999.90;;;;;;;;;;4988524;28;20209;-66
2023/09/27 02:42:00;;;;;;;1999.90;999.90;;;;;;;;;;4987828;28;20206;-65
2023/09/27 02:44:27;;;;;;;1999.90;999.90;;;;;;;;;;4987944;28;20256;-68
2023/09/27 02:46:55;;;;;;;1999.90;999.90;;;;;;;;;;4987395;28;20325;-67
2023/09/27 02:49:24;;;;;;;1999.90;999.90;;;;;;;;;;4988010;28;20541;-64
2023/09/27 02:51:53;;;;;;;1999.90;999.90;;;;;;;;;;4986118;28;20205;-62
2023/09/27 02:54:20;;;;;;;1999.90;999.90;;;;;;;;;;4986426;28;20198;-66
2023/09/27 02:56:48;;;;;;;1999.90;999.90;;;;;;;;;;4986356;28;20233;-61
2023/09/27 02:59:15;;;;;;;1999.90;999.90;;;;;;;;;;4987697;28;20200;-64
2023/09/27 03:01:43;;;;;;;1999.90;999.90;;;;;;;;;;4986890;28;20189;-68
2023/09/27 03:04:11;;;;;;;1999.90;999.90;;;;;;;;;;4987744;28;20673;-68
2023/09/27 03:06:41;;;;;;;1999.90;999.90;;;;;;;;;;4987464;28;20248;-65
2023/09/27 03:09:09;;;;;;;1999.90;999.90;;;;;;;;;;4986062;28;20200;-63
2023/09/27 03:11:37;;;;;;;1999.90;999.90;;;;;;;;;;4986888;28;20202;-67
2023/09/27 03:14:04;;;;;;;1999.90;999.90;;;;;;;;;;4986530;28;20197;-61
2023/09/27 03:16:32;;;;;;;1999.90;999.90;;;;;;;;;;4987462;28;20213;-61
2023/09/27 03:18:59;;;;;;;1999.90;999.90;;;;;;;;;;4987101;28;20197;-65
2023/09/27 03:21:27;;;;;;;1999.90;999.90;;;;;;;;;;4985287;28;20202;-64
2023/09/27 03:23:56;;;;;;;1999.90;999.90;;;;;;;;;;4987086;28;20186;-65
2023/09/27 03:26:24;;;;;;;1999.90;999.90;;;;;;;;;;4985695;28;20208;-67
2023/09/27 03:28:51;;;;;;;1999.90;999.90;;;;;;;;;;4987514;28;20201;-61
2023/09/27 03:31:18;;;;;;;1999.90;999.90;;;;;;;;;;4987065;28;20201;-66
2023/09/27 03:33:46;;;;;;;1999.90;999.90;;;;;;;;;;4986534;28;20201;-61
2023/09/27 03:36:14;;;;;;;1999.90;999.90;;;;;;;;;;4985586;28;20221;-68
2023/09/27 03:38:42;;;;;;;1999.90;999.90;;;;;;;;;;4986602;28;20662;-63
2023/09/27 03:41:11;;;;;;;1999.90;999.90;;;;;;;;;;4986666;28;20221;-62
2023/09/27 03:43:39;;;;;;;1999.90;999.90;;;;;;;;;;4986493;28;20679;-62
2023/09/27 03:46:06;;;;;;;1999.90;999.90;;;;;;;;;;4986938;28;20243;-66
2023/09/27 03:48:33;;;;;;;1999.90;999.90;;;;;;;;;;4987041;28;20205;-61
2023/09/27 03:51:01;;;;;;;1999.90;999.90;;;;;;;;;;4986437;28;20832;-61
2023/09/27 03:53:28;;;;;;;1999.90;999.90;;;;;;;;;;4986783;28;20212;-61
2023/09/27 03:55:56;;;;;;;1999.90;999.90;;;;;;;;;;4986428;28;20198;-62
2023/09/27 03:58:24;;;;;;;1999.90;999.90;;;;;;;;;;4985062;28;20194;-62
2023/09/27 04:00:52;;;;;;;1999.90;999.90;;;;;;;;;;5002513;28;20185;-62
2023/09/27 04:03:20;;;;;;;1999.90;999.90;;;;;;;;;;5005952;28;20215;-61
2023/09/27 04:05:47;;;;;;;1999.90;999.90;;;;;;;;;;4988346;28;20562;-62
2023/09/27 04:08:17;;;;;;;1999.90;999.90;;;;;;;;;;5006185;28;20220;-65
2023/09/27 04:10:44;;;;;;;1999.90;999.90;;;;;;;;;;5006173;28;20193;-65
2023/09/27 04:13:12;;;;;;;1999.90;999.90;;;;;;;;;;5006766;28;20296;-62
2023/09/27 04:15:40;;;;;;;1999.90;999.90;;;;;;;;;;5005761;28;20189;-63
2023/09/27 04:18:08;;;;;;;1999.90;999.90;;;;;;;;;;5006163;28;20224;-63
2023/09/27 04:20:35;;;;;;;1999.90;999.90;;;;;;;;;;5006065;28;20189;-61
2023/09/27 04:23:03;;;;;;;1999.90;999.90;;;;;;;;;;5005306;28;20524;-63
2023/09/27 04:25:30;;;;;;;1999.90;999.90;;;;;;;;;;5005991;28;20185;-64
2023/09/27 04:27:58;;;;;;;1999.90;999.90;;;;;;;;;;4988080;28;20330;-63
2023/09/27 04:30:25;;;;;;;1999.90;999.90;;;;;;;;;;5005912;28;20195;-66
2023/09/27 04:32:54;;;;;;;1999.90;999.90;;;;;;;;;;5005151;28;20216;-62
2023/09/27 04:35:21;;;;;;;1999.90;999.90;;;;;;;;;;4993619;28;20198;-65
2023/09/27 04:37:49;;;;;;;1999.90;999.90;;;;;;;;;;4985913;28;20360;-63
2023/09/27 04:40:17;;;;;;;1999.90;999.90;;;;;;;;;;4968656;28;20205;-62
2023/09/27 04:42:45;;;;;;;1999.90;999.90;;;;;;;;;;4978978;28;20192;-62
2023/09/27 04:45:13;;;;;;;1999.90;999.90;;;;;;;;;;4986687;28;20197;-61
2023/09/27 04:47:41;;;;;;;1999.90;999.90;;;;;;;;;;4990633;28;20182;-63
2023/09/27 04:50:10;;;;;;;1999.90;999.90;;;;;;;;;;4989932;28;20204;-62
2023/09/27 04:52:38;;;;;;;1999.90;999.90;;;;;;;;;;4989566;28;20196;-62
2023/09/27 04:55:06;;;;;;;1999.90;999.90;;;;;;;;;;4989887;28;20260;-63
2023/09/27 04:57:34;;;;;;;1999.90;999.90;;;;;;;;;;4990077;28;20229;-64
2023/09/27 05:00:01;;;;;;;1999.90;999.90;;;;;;;;;;4989999;28;20216;-62
2023/09/27 05:02:28;;;;;;;1999.90;999.90;;;;;;;;;;4990022;28;20221;-65
2023/09/27 05:04:55;;;;;;;1999.90;999.90;;;;;;;;;;4989730;28;20210;-64
2023/09/27 05:07:24;;;;;;;1999.90;999.90;;;;;;;;;;4989806;28;20198;-62
2023/09/27 05:09:51;;;;;;;1999.90;999.90;;;;;;;;;;4989520;28;20276;-64
2023/09/27 05:12:19;;;;;;;1999.90;999.90;;;;;;;;;;4989363;28;20213;-63
2023/09/27 05:14:46;;;;;;;1999.90;999.90;;;;;;;;;;4989951;28;20213;-64
2023/09/27 05:17:13;;;;;;;1999.90;999.90;;;;;;;;;;4989676;28;20556;-65
2023/09/27 05:19:40;;;;;;;1999.90;999.90;;;;;;;;;;4989750;28;20566;-66
2023/09/27 05:22:08;;;;;;;1999.90;999.90;;;;;;;;;;4989043;28;20197;-64
2023/09/27 05:24:38;;;;;;;1999.90;999.90;;;;;;;;;;4989467;28;20193;-65
2023/09/27 05:27:07;;;;;;;1999.90;999.90;;;;;;;;;;4989713;28;20281;-63
2023/09/27 05:29:34;;;;;;;1999.90;999.90;;;;;;;;;;4989443;28;20197;-64
2023/09/27 05:32:02;;;;;;;1999.90;999.90;;;;;;;;;;4989107;28;20345;-63
2023/09/27 05:34:30;;;;;;;1999.90;999.90;;;;;;;;;;4988899;28;20269;-61
2023/09/27 05:36:57;;;;;;;1999.90;999.90;;;;;;;;;;4970342;28;20546;-65
2023/09/27 05:39:24;;;;;;;1999.90;999.90;;;;;;;;;;4989211;28;20205;-67
2023/09/27 05:41:53;;;;;;;1999.90;999.90;;;;;;;;;;4988775;28;20216;-66
2023/09/27 05:44:20;;;;;;;1999.90;999.90;;;;;;;;;;4971778;28;20198;-62
2023/09/27 05:46:48;;;;;;;1999.90;999.90;;;;;;;;;;4988980;28;20225;-62
2023/09/27 05:49:16;;;;;;;1999.90;999.90;;;;;;;;;;4988738;28;20650;-64
2023/09/27 05:51:44;;;;;;;1999.90;999.90;;;;;;;;;;4988786;28;20197;-61
2023/09/27 05:54:12;;;;;;;1999.90;999.90;;;;;;;;;;4988814;28;20224;-60
2023/09/27 05:56:39;;;;;;;1999.90;999.90;;;;;;;;;;4988633;28;20197;-64
2023/09/27 05:59:11;;;;;;;1999.90;999.90;;;;;;;;;;4988663;28;20240;-63
2023/09/27 06:01:39;;;;;;;1999.90;999.90;;;;;;;;;;4988913;28;20182;-65
2023/09/27 06:04:06;;;;;;;1999.90;999.90;;;;;;;;;;4984392;28;20645;-66
2023/09/27 06:06:36;;;;;;;1999.90;999.90;;;;;;;;;;4988810;28;20205;-61
2023/09/27 06:09:05;;;;;;;1999.90;999.90;;;;;;;;;;4964125;28;20651;-66
2023/09/27 06:11:33;;;;;;;1999.90;999.90;;;;;;;;;;4976552;28;20674;-66
2023/09/27 06:14:00;;;;;;;1999.90;999.90;;;;;;;;;;4985045;28;20571;-69
2023/09/27 06:16:29;;;;;;;1999.90;999.90;;;;;;;;;;4988539;28;20194;-65
2023/09/27 06:18:56;;;;;;;1999.90;999.90;;;;;;;;;;4988415;28;20301;-64
2023/09/27 06:21:23;;;;;;;1999.90;999.90;;;;;;;;;;4982135;28;20190;-63
2023/09/27 06:23:51;;;;;;;1999.90;999.90;;;;;;;;;;4973839;28;20256;-63
2023/09/27 06:26:18;;;;;;;1999.90;999.90;;;;;;;;;;4977235;28;20745;-63
2023/09/27 06:28:45;;;;;;;1999.90;999.90;;;;;;;;;;4960655;28;20629;-62
2023/09/27 06:31:13;;;;;;;1999.90;999.90;;;;;;;;;;4978935;28;20198;-68
2023/09/27 06:33:45;;;;;;;1999.90;999.90;;;;;;;;;;4970263;28;20244;-66
2023/09/27 06:36:15;;;;;;;1999.90;999.90;;;;;;;;;;4971887;28;20590;-61
2023/09/27 06:38:42;;;;;;;1999.90;999.90;;;;;;;;;;4976559;28;20996;-61
2023/09/27 06:41:09;;;;;;;1999.90;999.90;;;;;;;;;;4977851;28;20193;-67
2023/09/27 06:43:37;;;;;;;1999.90;999.90;;;;;;;;;;4976499;28;20233;-60
2023/09/27 06:46:10;;;;;;;1999.90;999.90;;;;;;;;;;4953593;28;20258;-61
2023/09/27 06:48:39;;;;;;;1999.90;999.90;;;;;;;;;;4952016;28;20195;-66
2023/09/27 06:51:08;;;;;;;1999.90;999.90;;;;;;;;;;4947304;29;20270;-65
2023/09/27 06:53:35;;;;;;;1999.90;999.90;;;;;;;;;;4949316;29;20269;-67
2023/09/27 06:56:03;;;;;;;1999.90;999.90;;;;;;;;;;4948985;29;20282;-60
2023/09/27 06:58:30;;;;;;;1999.90;999.90;;;;;;;;;;4947724;29;20257;-63
2023/09/27 07:00:57;;;;;;;1999.90;999.90;;;;;;;;;;4966053;28;20210;-60
2023/09/27 07:03:27;;;;;;;1999.90;999.90;;;;;;;;;;4968012;28;20660;-61
2023/09/27 07:05:54;;;;;;;1999.90;999.90;;;;;;;;;;4968361;28;20210;-61
2023/09/27 07:08:23;;;;;;;1999.90;999.90;;;;;;;;;;4967205;28;20769;-61
2023/09/27 07:10:51;;;;;;;1999.90;999.90;;;;;;;;;;4968163;28;20202;-66
2023/09/27 07:13:18;;;;;;;1999.90;999.90;;;;;;;;;;4967700;28;20198;-65
2023/09/27 07:15:46;;;;;;;1999.90;999.90;;;;;;;;;;4968051;28;20569;-62
2023/09/27 07:18:13;;;;;;;1999.90;999.90;;;;;;;;;;4967476;28;20301;-62
2023/09/27 07:20:42;;;;;;;1999.90;999.90;;;;;;;;;;4968046;28;20210;-66
2023/09/27 07:23:14;;;;;;;1999.90;999.90;;;;;;;;;;4967617;28;20232;-65
2023/09/27 07:25:44;;;;;;;1999.90;999.90;;;;;;;;;;4968040;28;20222;-61
2023/09/27 07:28:12;;;;;;;1999.90;999.90;;;;;;;;;;4967798;28;20204;-67
2023/09/27 07:30:39;;;;;;;1999.90;999.90;;;;;;;;;;4966777;28;20246;-63
2023/09/27 07:33:10;;;;;;;1999.90;999.90;;;;;;;;;;4967678;28;20195;-68
2023/09/27 07:35:42;;;;;;;1999.90;999.90;;;;;;;;;;4967751;28;20207;-65
2023/09/27 07:38:09;;;;;;;1999.90;999.90;;;;;;;;;;4967473;28;20301;-65
2023/09/27 07:40:36;;;;;;;1999.90;999.90;;;;;;;;;;4967784;28;20213;-66
2023/09/27 07:43:06;;;;;;;1999.90;999.90;;;;;;;;;;4960915;28;20659;-63
2023/09/27 07:45:36;;;;;;;1999.90;999.90;;;;;;;;;;4949989;28;20735;-62
2023/09/27 07:48:03;;;;;;;1999.90;999.90;;;;;;;;;;4967620;28;20186;-61
2023/09/27 07:50:32;;;;;;;1999.90;999.90;;;;;;;;;;4966946;28;20197;-65
2023/09/27 07:52:59;;;;;;;1999.90;999.90;;;;;;;;;;4967746;28;20305;-63
2023/09/27 07:55:27;;;;;;;1999.90;999.90;;;;;;;;;;4967254;28;20197;-66
2023/09/27 07:57:55;;;;;;;1999.90;999.90;;;;;;;;;;4950161;28;20320;-67
2023/09/27 08:00:28;;;;;;;1999.90;999.90;;;;;;;;;;4980633;28;20202;-65
2023/09/27 08:02:57;;;;;;;1999.90;999.90;;;;;;;;;;4986788;28;20214;-64
2023/09/27 08:05:25;;;;;;;1999.90;999.90;;;;;;;;;;4984516;28;20885;-64
2023/09/27 08:07:52;;;;;;;1999.90;999.90;;;;;;;;;;4986452;28;20194;-64
2023/09/27 08:10:20;;;;;;;1999.90;999.90;;;;;;;;;;4985450;28;20693;-66
2023/09/27 08:12:48;;;;;;;1999.90;999.90;;;;;;;;;;4986780;28;20202;-64
2023/09/27 08:15:17;;;;;;;1999.90;999.90;;;;;;;;;;4986126;28;20248;-62
2023/09/27 08:17:47;;;;;;;1999.90;999.90;;;;;;;;;;4986567;28;20209;-64
2023/09/27 08:20:14;;;;;;;1999.90;999.90;;;;;;;;;;4985972;28;20193;-64
2023/09/27 08:22:42;;;;;;;1999.90;999.90;;;;;;;;;;4986304;28;20196;-64
2023/09/27 08:25:14;;;;;;;1999.90;999.90;;;;;;;;;;4985908;28;20208;-63
2023/09/27 08:27:42;;;;;;;1999.90;999.90;;;;;;;;;;4986770;28;20194;-62
2023/09/27 08:30:11;;;;;;;1999.90;999.90;;;;;;;;;;4984098;28;20190;-65
2023/09/27 08:32:40;;;;;;;1999.90;999.90;;;;;;;;;;4985172;28;20820;-62
2023/09/27 08:35:10;;;;;;;1999.90;999.90;;;;;;;;;;4986221;28;20224;-66
2023/09/27 08:37:37;;;;;;;1999.90;999.90;;;;;;;;;;4986552;28;20690;-68
2023/09/27 08:40:05;;;;;;;1999.90;999.90;;;;;;;;;;4985882;28;20201;-67
2023/09/27 08:42:33;;;;;;;1999.90;999.90;;;;;;;;;;4985879;28;20538;-67
2023/09/27 08:45:02;;;;;;;1999.90;999.90;;;;;;;;;;4986238;28;20221;-65
2023/09/27 08:47:30;;;;;;;1999.90;999.90;;;;;;;;;;4985404;28;20230;-69
2023/09/27 08:49:58;;;;;;;1999.90;999.90;;;;;;;;;;4986113;28;20197;-68
2023/09/27 08:52:27;;;;;;;1999.90;999.90;;;;;;;;;;4985856;28;20197;-63
2023/09/27 08:54:54;;;;;;;1999.90;999.90;;;;;;;;;;4986477;28;20688;-65
2023/09/27 08:57:23;;;;;;;1999.90;999.90;;;;;;;;;;4985611;28;20657;-66
2023/09/27 08:59:50;;;;;;;1999.90;999.90;;;;;;;;;;4985866;28;20228;-65
2023/09/27 09:02:18;;;;;;;1999.90;999.90;;;;;;;;;;4985682;28;20293;-65
2023/09/27 09:04:45;;;;;;;1999.90;999.90;;;;;;;;;;4986124;28;20240;-66
2023/09/27 09:07:12;;;;;;;1999.90;999.90;;;;;;;;;;4985684;28;20197;-65
2023/09/27 09:09:41;;;;;;;1999.90;999.90;;;;;;;;;;4985155;28;20610;-66
2023/09/27 09:12:09;;;;;;;1999.90;999.90;;;;;;;;;;4986159;28;20252;-63
2023/09/27 09:14:42;;;;;;;1999.90;999.90;;;;;;;;;;4985996;28;20209;-70
2023/09/27 09:17:10;;;;;;;1999.90;999.90;;;;;;;;;;4986040;28;20712;-63
2023/09/27 09:19:39;;;;;;;1999.90;999.90;;;;;;;;;;4985593;28;20415;-67
2023/09/27 09:22:08;;;;;;;1999.90;999.90;;;;;;;;;;4986241;28;20201;-67
2023/09/27 09:24:36;;;;;;;1999.90;999.90;;;;;;;;;;4991042;28;20429;-65
2023/09/27 09:27:08;;;;;;;1999.90;999.90;;;;;;;;;;4959213;28;20193;-63
2023/09/27 09:29:46;;;;;;;1999.90;999.90;;;;;;;;;;4975377;28;20194;-63
2023/09/27 09:32:15;;;;;;;1999.90;999.90;;;;;;;;;;4987154;28;20669;-65
2023/09/27 09:34:43;;;;;;;1999.90;999.90;;;;;;;;;;4979008;28;20657;-62
2023/09/27 09:37:17;;;;;;;1999.90;999.90;;;;;;;;;;4971700;28;20213;-67
2023/09/27 09:39:44;;;;;;;1999.90;999.90;;;;;;;;;;4986193;28;20720;-66
2023/09/27 09:42:13;;;;;;;1999.90;999.90;;;;;;;;;;4984176;28;20208;-67
2023/09/27 09:44:40;;;;;;;1999.90;999.90;;;;;;;;;;4988788;28;20205;-65
2023/09/27 09:47:12;;;;;;;1999.90;999.90;;;;;;;;;;4980438;28;20254;-64
2023/09/27 09:49:41;;;;;;;1999.90;999.90;;;;;;;;;;4988392;28;20818;-62
2023/09/27 09:52:12;;;;;;;1999.90;999.90;;;;;;;;;;4976377;28;20207;-64
2023/09/27 09:54:46;;;;;;;1999.90;999.90;;;;;;;;;;4987756;28;20241;-69
2023/09/27 09:57:15;;;;;;;1999.90;999.90;;;;;;;;;;4988986;28;20197;-62
2023/09/27 09:59:47;;;;;;;1999.90;999.90;;;;;;;;;;4988722;28;20225;-62
2023/09/27 10:02:20;;;;;;;1999.90;999.90;;;;;;;;;;4988989;28;20197;-66
2023/09/27 10:04:48;;;;;;;1999.90;999.90;;;;;;;;;;4987896;28;20288;-66
2023/09/27 10:07:17;;;;;;;1999.90;999.90;;;;;;;;;;4988885;28;20200;-69
2023/09/27 10:09:44;;;;;;;1999.90;999.90;;;;;;;;;;4988466;28;20478;-66
2023/09/27 10:12:12;;;;;;;1999.90;999.90;;;;;;;;;;4971555;28;20209;-66
2023/09/27 10:14:41;;;;;;;1999.90;999.90;;;;;;;;;;4988610;28;20198;-64
2023/09/27 10:17:20;;;;;;;1999.90;999.90;;;;;;;;;;4988802;28;20198;-67
2023/09/27 10:20:11;;;;;;;1999.90;999.90;;;;;;;;;;4988512;28;20228;-60
2023/09/27 10:22:39;;;;;;;1999.90;999.90;;;;;;;;;;4970938;28;20206;-63
2023/09/27 10:25:06;;;;;;;1999.90;999.90;;;;;;;;;;4971238;28;20205;-63
2023/09/27 10:27:58;;;;;;;1999.90;999.90;;;;;;;;;;4985660;28;20189;-63
2023/09/27 10:30:26;;;;;;;1999.90;999.90;;;;;;;;;;4973662;28;20210;-65
2023/09/27 10:33:20;;;;;;;1999.90;999.90;;;;;;;;;;4988488;28;20209;-68
2023/09/27 10:35:48;;;;;;;1999.90;999.90;;;;;;;;;;4987640;28;20206;-64
2023/09/27 10:38:16;;;;;;;1999.90;999.90;;;;;;;;;;4988572;28;20652;-68
2023/09/27 10:40:43;;;;;;;1999.90;999.90;;;;;;;;;;4987727;28;20205;-62
2023/09/27 10:43:11;;;;;;;1999.90;999.90;;;;;;;;;;4988307;28;20196;-65
2023/09/27 10:45:39;;;;;;;1999.90;999.90;;;;;;;;;;4987803;28;20190;-62
2023/09/27 10:48:18;;;;;;;1999.90;999.90;;;;;;;;;;4988301;28;20815;-66
2023/09/27 10:50:52;;;;;;;1999.90;999.90;;;;;;;;;;4970294;28;20276;-66
2023/09/27 10:53:19;;;;;;;1999.90;999.90;;;;;;;;;;4988457;28;20190;-66
2023/09/27 10:55:47;;;;;;;1999.90;999.90;;;;;;;;;;4988081;28;20190;-62
2023/09/27 10:58:15;;;;;;;1999.90;999.90;;;;;;;;;;4978278;28;20193;-62
2023/09/27 11:00:55;;;;;;;1999.90;999.90;;;;;;;;;;4958835;28;20245;-66
2023/09/27 11:03:23;;;;;;;1999.90;999.90;;;;;;;;;;4976762;28;20224;-63
2023/09/27 11:05:51;;;;;;;1999.90;999.90;;;;;;;;;;4967661;28;20253;-62
2023/09/27 11:08:22;;;;;;;1999.90;999.90;;;;;;;;;;4987986;28;20544;-64
2023/09/27 11:10:50;;;;;;;1999.90;999.90;;;;;;;;;;4987689;28;20710;-62
2023/09/27 11:13:17;;;;;;;1999.90;999.90;;;;;;;;;;4988006;28;20655;-63
2023/09/27 11:15:45;;;;;;;1999.90;999.90;;;;;;;;;;4986771;28;20312;-63
2023/09/27 11:18:14;;;;;;;1999.90;999.90;;;;;;;;;;4987560;28;20209;-61
2023/09/27 11:20:41;;;;;;;1999.90;999.90;;;;;;;;;;4986671;28;20248;-64
2023/09/27 11:23:08;;;;;;;1999.90;999.90;;;;;;;;;;4987726;28;20221;-64
2023/09/27 11:25:37;;;;;;;1999.90;999.90;;;;;;;;;;4987389;28;20198;-63
2023/09/27 11:28:05;;;;;;;1999.90;999.90;;;;;;;;;;4987851;28;20557;-62
2023/09/27 11:30:33;;;;;;;1999.90;999.90;;;;;;;;;;4986904;28;20224;-65
2023/09/27 11:33:03;;;;;;;1999.90;999.90;;;;;;;;;;4987647;28;20564;-64
2023/09/27 11:35:32;;;;;;;1999.90;999.90;;;;;;;;;;4985910;28;20193;-61
2023/09/27 11:38:13;;;;;;;1999.90;999.90;;;;;;;;;;4986196;28;20224;-62
2023/09/27 11:40:42;;;;;;;1999.90;999.90;;;;;;;;;;4985551;28;20765;-64
2023/09/27 11:43:10;;;;;;;1999.90;999.90;;;;;;;;;;4985814;28;20840;-64
2023/09/27 11:45:43;;;;;;;1999.90;999.90;;;;;;;;;;4986694;28;20198;-65
2023/09/27 11:48:11;;;;;;;1999.90;999.90;;;;;;;;;;4986951;28;20731;-63
2023/09/27 11:50:39;;;;;;;1999.90;999.90;;;;;;;;;;4985979;28;20201;-63
2023/09/27 11:53:07;;;;;;;1999.90;999.90;;;;;;;;;;4967439;28;20203;-65
2023/09/27 11:55:35;;;;;;;1999.90;999.90;;;;;;;;;;4966385;28;20198;-63
2023/09/27 11:58:02;;;;;;;1999.90;999.90;;;;;;;;;;4967699;28;20198;-62
2023/09/27 12:00:30;;;;;;;1999.90;999.90;;;;;;;;;;4981494;28;20627;-66
2023/09/27 12:02:58;;;;;;;1999.90;999.90;;;;;;;;;;4986744;28;20225;-63
2023/09/27 12:05:25;;;;;;;1999.90;999.90;;;;;;;;;;4986710;28;20833;-63
2023/09/27 12:07:54;;;;;;;1999.90;999.90;;;;;;;;;;4985952;28;20193;-67
2023/09/27 12:10:22;;;;;;;1999.90;999.90;;;;;;;;;;4985197;28;20745;-64
2023/09/27 12:12:49;;;;;;;1999.90;999.90;;;;;;;;;;4986438;28;20300;-63
2023/09/27 12:15:16;;;;;;;1999.90;999.90;;;;;;;;;;4986698;28;20200;-63
2023/09/27 12:17:44;;;;;;;1999.90;999.90;;;;;;;;;;4986302;28;20197;-64
2023/09/27 12:20:13;;;;;;;1999.90;999.90;;;;;;;;;;4985559;28;20814;-60
2023/09/27 12:22:40;;;;;;;1999.90;999.90;;;;;;;;;;4986104;28;20197;-63
2023/09/27 12:25:09;;;;;;;1999.90;999.90;;;;;;;;;;4986438;28;20572;-60
2023/09/27 12:27:38;;;;;;;1999.90;999.90;;;;;;;;;;4986143;28;20216;-62
2023/09/27 12:30:06;;;;;;;1999.90;999.90;;;;;;;;;;4985979;28;20244;-62
2023/09/27 12:32:33;;;;;;;1999.90;999.90;;;;;;;;;;4986067;28;20280;-61
2023/09/27 12:35:00;;;;;;;1999.90;999.90;;;;;;;;;;4986563;28;20645;-60
2023/09/27 12:37:27;;;;;;;1999.90;999.90;;;;;;;;;;4986462;28;20198;-64
2023/09/27 12:39:55;;;;;;;1999.90;999.90;;;;;;;;;;4985517;28;20231;-63
2023/09/27 12:42:23;;;;;;;1999.90;999.90;;;;;;;;;;4986011;28;20200;-63
2023/09/27 12:44:51;;;;;;;1999.90;999.90;;;;;;;;;;4985838;28;20212;-63
2023/09/27 12:47:18;;;;;;;1999.90;999.90;;;;;;;;;;4970124;28;20320;-62
2023/09/27 12:49:45;;;;;;;1999.90;999.90;;;;;;;;;;4985466;28;20217;-65
2023/09/27 12:52:15;;;;;;;1999.90;999.90;;;;;;;;;;4986271;28;20198;-65
2023/09/27 12:54:44;;;;;;;1999.90;999.90;;;;;;;;;;4985867;28;20197;-62
2023/09/27 12:57:11;;;;;;;1999.90;999.90;;;;;;;;;;4986306;28;20205;-64
2023/09/27 12:59:40;;;;;;;1999.90;999.90;;;;;;;;;;4985135;28;20233;-66
2023/09/27 13:02:08;;;;;;;1999.90;999.90;;;;;;;;;;4986495;28;20198;-63
2023/09/27 13:04:36;;;;;;;1999.90;999.90;;;;;;;;;;4986028;28;20200;-66
2023/09/27 13:07:03;;;;;;;1999.90;999.90;;;;;;;;;;4987075;28;20198;-63
2023/09/27 13:09:30;;;;;;;1999.90;999.90;;;;;;;;;;4989941;28;20202;-66
2023/09/27 13:11:58;;;;;;;1999.90;999.90;;;;;;;;;;4989934;28;20240;-63
2023/09/27 13:14:25;;;;;;;1999.90;999.90;;;;;;;;;;4990496;28;20201;-66
2023/09/27 13:16:54;;;;;;;1999.90;999.90;;;;;;;;;;4989887;28;20190;-61
2023/09/27 13:19:21;;;;;;;1999.90;999.90;;;;;;;;;;4989450;28;20326;-63
2023/09/27 13:21:48;;;;;;;1999.90;999.90;;;;;;;;;;4989741;28;20296;-68
2023/09/27 13:24:16;;;;;;;1999.90;999.90;;;;;;;;;;4988970;28;20260;-67
2023/09/27 13:26:43;;;;;;;1999.90;999.90;;;;;;;;;;4989592;28;20197;-65
2023/09/27 13:29:10;;;;;;;1999.90;999.90;;;;;;;;;;4989906;28;20382;-70
2023/09/27 13:31:39;;;;;;;1999.90;999.90;;;;;;;;;;4989875;28;20216;-62
2023/09/27 13:34:07;;;;;;;1999.90;999.90;;;;;;;;;;4988641;28;20661;-63
2023/09/27 13:36:36;;;;;;;1999.90;999.90;;;;;;;;;;4990057;28;20523;-70
2023/09/27 13:39:05;;;;;;;1999.90;999.90;;;;;;;;;;4989162;28;20875;-66
2023/09/27 13:41:32;;;;;;;1999.90;999.90;;;;;;;;;;4989046;28;20206;-64
2023/09/27 13:44:00;;;;;;;1999.90;999.90;;;;;;;;;;4988139;28;20283;-63
2023/09/27 13:46:27;;;;;;;1999.90;999.90;;;;;;;;;;4989401;28;20190;-68
2023/09/27 13:48:54;;;;;;;1999.90;999.90;;;;;;;;;;4988518;28;20249;-66